Time;durP1;ratioP1;P1;durP2;ratioP2;P2;SDS_P1;SDS_P2;PMS_P1;PMS_P2;Temp;Humidity;BMP_temperature;BMP_pressure;BME280_temperature;BME280_humidity;BME280_pressure;Samples;Min_cycle;Max_cycle;Signal;HPM_P1;HPM_P2
2023/05/15 00:00:49;;;;;;;2.50;1.65;;;;;;;17.36;50.57;92685.19;5020741;28;20037;-92
2023/05/15 00:03:15;;;;;;;1.35;1.25;;;;;;;17.35;50.66;92685.72;5054359;28;20033;-92
2023/05/15 00:05:40;;;;;;;1.70;1.40;;;;;;;17.37;50.37;92677.75;5017704;28;20048;-93
2023/05/15 00:08:05;;;;;;;2.15;1.70;;;;;;;17.35;50.48;92675.53;5054904;28;20033;-92
2023/05/15 00:10:31;;;;;;;1.98;1.55;;;;;;;17.32;50.20;92667.66;5021996;28;20143;-92
2023/05/15 00:12:56;;;;;;;1.70;1.50;;;;;;;17.31;50.75;92671.66;5049204;28;20386;-92
2023/05/15 00:15:22;;;;;;;1.90;1.30;;;;;;;17.29;50.48;92669.44;5038136;28;20537;-90
2023/05/15 00:17:47;;;;;;;1.38;1.27;;;;;;;17.34;50.60;92676.03;5055926;28;20041;-93
2023/05/15 00:20:12;;;;;;;2.10;1.20;;;;;;;17.36;50.38;92666.06;5033047;28;20048;-92
2023/05/15 00:22:39;;;;;;;1.58;1.35;;;;;;;17.35;50.84;92678.25;5057939;28;20045;-92
2023/05/15 00:25:05;;;;;;;1.48;1.25;;;;;;;17.33;50.45;92675.31;5022938;28;20037;-93
2023/05/15 00:27:30;;;;;;;1.58;1.25;;;;;;;17.39;50.83;92680.69;5019879;28;20071;-93
2023/05/15 00:29:59;;;;;;;1.40;1.23;;;;;;;17.37;50.55;92672.28;5018906;28;20045;-93
2023/05/15 00:32:24;;;;;;;1.98;1.60;;;;;;;17.34;50.28;92676.03;5035493;28;20340;-92
2023/05/15 00:34:49;;;;;;;1.13;1.02;;;;;;;17.33;50.65;92667.09;5034566;28;20076;-92
2023/05/15 00:37:15;;;;;;;1.98;1.60;;;;;;;17.35;50.66;92666.59;5039142;28;20033;-93
2023/05/15 00:39:40;;;;;;;2.20;1.90;;;;;;;17.33;50.76;92663.63;5039422;28;20045;-93
2023/05/15 00:42:07;;;;;;;1.63;1.52;;;;;;;17.33;50.53;92666.38;5017591;28;20564;-92
2023/05/15 00:44:32;;;;;;;1.58;1.33;;;;;;;17.29;50.49;92666.69;5043934;28;20053;-93
2023/05/15 00:46:58;;;;;;;1.73;1.30;;;;;;;17.35;50.59;92670.06;5039260;28;20034;-92
2023/05/15 00:49:25;;;;;;;1.77;1.48;;;;;;;17.37;50.45;92664.06;5017414;28;20074;-92
2023/05/15 00:51:51;;;;;;;1.90;1.40;;;;;;;17.33;50.41;92666.38;5022989;28;20044;-93
2023/05/15 00:54:16;;;;;;;1.55;1.33;;;;;;;17.36;50.59;92662.59;5022662;28;20041;-93
2023/05/15 00:56:42;;;;;;;1.52;1.30;;;;;;;17.36;50.70;92668.06;5036725;28;20044;-91
2023/05/15 00:59:08;;;;;;;2.00;1.13;;;;;;;17.31;50.73;92666.19;5020710;28;20052;-92
2023/05/15 01:01:33;;;;;;;2.30;1.50;;;;;;;17.28;50.63;92661.75;5019082;28;20044;-93
2023/05/15 01:04:02;;;;;;;2.22;1.60;;;;;;;17.30;50.37;92653.78;5039600;28;20036;-92
2023/05/15 01:06:28;;;;;;;1.63;1.33;;;;;;;17.33;50.73;92655.44;5032893;28;20036;-92
2023/05/15 01:08:55;;;;;;;1.73;1.38;;;;;;;17.34;50.54;92651.47;5055760;28;20037;-92
2023/05/15 01:11:20;;;;;;;1.70;1.30;;;;;;;17.33;50.71;92653.44;5039098;28;20041;-93
2023/05/15 01:13:46;;;;;;;1.50;1.17;;;;;;;17.30;50.92;92651.78;5035596;28;20041;-92
2023/05/15 01:16:11;;;;;;;1.90;1.33;;;;;;;17.33;50.81;92649.97;5041036;28;20044;-92
2023/05/15 01:18:37;;;;;;;1.38;1.17;;;;;;;17.31;50.33;92649.78;5039916;28;20052;-92
2023/05/15 01:21:19;;;;;;;2.28;1.50;;;;;;;17.28;50.45;92651.56;5034524;28;20041;-92
2023/05/15 01:24:06;;;;;;;1.42;1.33;;;;;;;17.29;50.93;92660.50;5040556;28;20041;-92
2023/05/15 01:26:53;;;;;;;1.85;1.23;;;;;;;17.29;50.94;92653.03;5051661;28;20045;-93
2023/05/15 01:29:23;;;;;;;1.60;1.38;;;;;;;17.31;50.75;92661.47;5066137;28;20045;-92
2023/05/15 01:32:02;;;;;;;2.10;1.73;;;;;;;17.30;50.62;92653.78;5037713;28;20395;-93
2023/05/15 01:34:38;;;;;;;1.40;1.23;;;;;;;17.30;50.38;92648.31;5039047;28;20418;-92
2023/05/15 01:37:03;;;;;;;1.27;1.17;;;;;;;17.33;50.68;92658.91;5043192;28;20044;-93
2023/05/15 01:39:29;;;;;;;1.60;1.45;;;;;;;17.30;50.57;92657.25;5028665;28;20045;-92
2023/05/15 01:41:57;;;;;;;1.50;1.38;;;;;;;17.30;50.81;92654.53;5014200;28;20106;-92
2023/05/15 01:44:27;;;;;;;1.73;1.35;;;;;;;17.29;50.47;92653.03;5039078;28;20079;-92
2023/05/15 01:46:54;;;;;;;1.45;1.30;;;;;;;17.32;50.83;92656.72;5024343;28;20029;-93
2023/05/15 01:49:22;;;;;;;1.20;1.10;;;;;;;17.26;50.56;92648.63;5021606;28;20048;-92
2023/05/15 01:51:49;;;;;;;1.15;1.05;;;;;;;17.28;50.70;92651.56;5024407;28;20041;-92
2023/05/15 01:54:16;;;;;;;1.60;1.30;;;;;;;17.26;50.71;92647.88;5036713;28;20120;-91
2023/05/15 01:56:45;;;;;;;1.98;1.50;;;;;;;17.27;50.60;92644.63;5007474;28;20057;-93
2023/05/15 01:59:12;;;;;;;1.63;1.23;;;;;;;17.28;51.00;92651.56;5038411;28;20100;-93
2023/05/15 02:01:37;;;;;;;2.08;1.58;;;;;;;17.32;50.66;92651.28;5017471;28;20033;-91
2023/05/15 02:04:03;;;;;;;1.35;1.20;;;;;;;17.29;50.87;92647.59;5053081;28;20040;-91
2023/05/15 02:06:28;;;;;;;1.52;1.10;;;;;;;17.28;50.81;92640.66;5023810;28;20044;-92
2023/05/15 02:08:56;;;;;;;2.30;1.50;;;;;;;17.26;50.51;92648.63;5040311;28;20060;-94
2023/05/15 02:11:21;;;;;;;1.48;1.27;;;;;;;17.25;50.42;92638.94;5021558;28;20059;-92
2023/05/15 02:13:46;;;;;;;1.33;1.15;;;;;;;17.28;50.71;92640.66;5028772;28;20828;-92
2023/05/15 02:16:12;;;;;;;1.30;1.20;;;;;;;17.27;50.48;92639.16;5023112;28;20068;-91
2023/05/15 02:18:37;;;;;;;2.45;1.50;;;;;;;17.27;50.55;92636.44;5018274;28;20064;-91
2023/05/15 02:21:03;;;;;;;1.15;1.02;;;;;;;17.30;50.74;92638.13;5038124;28;20037;-91
2023/05/15 02:23:28;;;;;;;1.33;1.15;;;;;;;17.26;50.43;92636.97;5023639;28;20037;-92
2023/05/15 02:26:11;;;;;;;1.90;1.48;;;;;;;17.25;50.57;92635.47;5017606;28;20057;-92
2023/05/15 02:28:51;;;;;;;1.13;1.02;;;;;;;17.28;50.47;92637.91;5040436;28;20060;-92
2023/05/15 02:31:39;;;;;;;1.35;1.10;;;;;;;17.22;50.73;92634.53;5049094;28;20040;-94
2023/05/15 02:34:11;;;;;;;1.92;1.30;;;;;;;17.28;50.44;92637.91;5024436;28;20041;-94
2023/05/15 02:36:38;;;;;;;1.90;1.10;;;;;;;17.26;50.87;92631.50;5044091;28;20033;-91
2023/05/15 02:39:04;;;;;;;1.30;1.20;;;;;;;17.24;50.67;92626.56;5026416;28;20041;-92
2023/05/15 02:41:29;;;;;;;1.67;1.10;;;;;;;17.27;50.64;92641.91;5021248;28;20530;-91
2023/05/15 02:43:55;;;;;;;1.27;1.00;;;;;;;17.29;50.70;92631.19;5028159;28;20049;-92
2023/05/15 02:46:20;;;;;;;1.80;1.20;;;;;;;17.27;50.55;92627.50;5042983;28;20048;-92
2023/05/15 02:48:46;;;;;;;1.58;1.17;;;;;;;17.27;50.78;92632.97;5018354;28;20048;-93
2023/05/15 02:51:11;;;;;;;1.02;0.82;;;;;;;17.28;50.68;92635.19;5042281;28;20041;-92
2023/05/15 02:53:40;;;;;;;1.98;0.95;;;;;;;17.29;50.47;92628.47;5022484;28;20507;-92
2023/05/15 02:56:06;;;;;;;1.35;1.10;;;;;;;17.25;50.53;92628.03;5035424;28;20037;-93
2023/05/15 02:58:31;;;;;;;1.20;1.10;;;;;;;17.24;50.68;92632.00;5025447;28;20414;-92
2023/05/15 03:00:56;;;;;;;1.48;1.25;;;;;;;17.21;50.79;92624.13;5041399;28;20049;-91
2023/05/15 03:03:22;;;;;;;1.58;0.80;;;;;;;17.25;50.79;92630.75;5019384;28;20045;-92
2023/05/15 03:05:47;;;;;;;1.60;1.15;;;;;;;17.25;51.07;92628.03;5041292;28;20044;-92
2023/05/15 03:08:13;;;;;;;1.42;1.15;;;;;;;17.25;50.86;92630.03;5074066;28;20041;-92
2023/05/15 03:10:39;;;;;;;1.90;1.38;;;;;;;17.23;50.78;92621.59;5052308;28;20041;-92
2023/05/15 03:13:04;;;;;;;1.42;1.20;;;;;;;17.22;50.62;92631.06;5039505;28;20450;-93
2023/05/15 03:15:29;;;;;;;1.75;1.30;;;;;;;17.19;50.73;92632.84;5004696;28;20530;-93
2023/05/15 03:17:55;;;;;;;1.48;1.33;;;;;;;17.22;50.63;92628.31;5001848;28;20072;-92
2023/05/15 03:20:20;;;;;;;1.25;1.00;;;;;;;17.25;50.70;92630.75;5022109;28;20072;-92
2023/05/15 03:22:47;;;;;;;1.92;1.27;;;;;;;17.24;50.63;92628.53;5019996;28;20049;-92
2023/05/15 03:25:12;;;;;;;1.33;1.00;;;;;;;17.24;50.52;92626.56;5006649;28;20099;-91
2023/05/15 03:27:38;;;;;;;1.65;1.33;;;;;;;17.20;50.47;92628.09;5022782;28;20045;-92
2023/05/15 03:30:04;;;;;;;2.78;1.20;;;;;;;17.22;50.91;92629.06;5020299;28;20033;-91
2023/05/15 03:32:29;;;;;;;2.10;1.40;;;;;;;17.28;50.79;92626.97;4996611;28;20102;-90
2023/05/15 03:34:54;;;;;;;42.30;34.35;;;;;;;17.36;50.80;92630.56;5034446;28;20052;-93
2023/05/15 03:37:20;;;;;;;34.70;22.02;;;;;;;17.43;51.25;92635.41;5010236;22;20060;-94
2023/05/15 03:39:45;;;;;;;7.20;5.72;;;;;;;17.48;50.74;92633.84;5034473;28;20718;-93
2023/05/15 03:42:11;;;;;;;24.15;11.82;;;;;;;17.50;50.42;92641.53;5018964;28;20056;-87
2023/05/15 03:44:36;;;;;;;4.30;3.10;;;;;;;17.53;50.45;92641.22;5032208;28;20037;-89
2023/05/15 03:47:02;;;;;;;4.78;3.45;;;;;;;17.48;50.17;92633.84;5010489;28;20098;-88
2023/05/15 03:49:27;;;;;;;4.47;1.45;;;;;;;17.38;50.36;92628.03;5015821;28;20126;-90
2023/05/15 03:51:53;;;;;;;11.52;3.65;;;;;;;17.44;50.71;92631.41;5016198;28;20131;-87
2023/05/15 03:54:18;;;;;;;7.10;3.22;;;;;;;17.38;51.05;92630.03;5025614;28;20055;-90
2023/05/15 03:56:44;;;;;;;74.82;26.80;;;;;;;17.40;50.15;92631.00;5014473;28;20076;-91
2023/05/15 03:59:09;;;;;;;15.43;8.13;;;;;;;17.30;50.29;92629.19;5015087;28;20179;-89
2023/05/15 04:01:36;;;;;;;192.35;83.45;;;;;;;17.28;50.02;92634.44;4996383;28;21231;-92
2023/05/15 04:04:02;;;;;;;124.50;52.60;;;;;;;17.19;50.38;92635.56;5012459;28;20132;-87
2023/05/15 04:06:28;;;;;;;122.55;49.17;;;;;;;17.23;50.45;92635.25;4998757;28;20064;-88
2023/05/15 04:08:53;;;;;;;138.98;68.30;;;;;;;17.29;50.35;92635.91;5026755;28;20600;-89
2023/05/15 04:11:20;;;;;;;136.95;62.92;;;;;;;17.32;50.30;92643.78;5022909;28;20511;-89
2023/05/15 04:13:45;;;;;;;222.85;91.38;;;;;;;17.33;50.42;92639.06;5012212;28;20049;-89
2023/05/15 04:16:11;;;;;;;156.07;85.88;;;;;;;17.28;50.41;92642.63;5047089;28;20651;-87
2023/05/15 04:18:37;;;;;;;212.50;87.40;;;;;;;17.28;50.03;92643.38;4983028;28;20073;-87
2023/05/15 04:21:02;;;;;;;121.90;52.95;;;;;;;17.33;50.31;92637.06;4992281;28;20084;-87
2023/05/15 04:23:29;;;;;;;271.00;103.68;;;;;;;17.18;50.41;92633.34;5032573;28;20049;-89
2023/05/15 04:25:54;;;;;;;95.50;41.25;;;;;;;17.07;50.42;92643.22;5026877;28;20053;-89
2023/05/15 04:28:20;;;;;;;123.30;49.45;;;;;;;17.10;50.96;92636.69;5004885;28;20045;-90
2023/05/15 04:30:46;;;;;;;136.93;49.65;;;;;;;17.17;50.59;92643.53;5014188;28;20044;-89
2023/05/15 04:33:11;;;;;;;150.40;55.70;;;;;;;17.20;50.69;92645.22;5047389;28;20089;-89
2023/05/15 04:35:37;;;;;;;166.18;58.78;;;;;;;17.18;50.78;92641.53;5045752;28;20043;-88
2023/05/15 04:38:02;;;;;;;175.95;67.28;;;;;;;17.21;50.10;92643.97;5013350;28;20032;-89
2023/05/15 04:40:28;;;;;;;220.52;79.07;;;;;;;17.39;50.61;92653.38;5030440;28;20040;-87
2023/05/15 04:42:53;;;;;;;237.80;103.32;;;;;;;17.35;50.45;92647.47;5030020;28;20044;-87
2023/05/15 04:45:19;;;;;;;246.13;90.55;;;;;;;17.27;50.00;92649.34;5022642;28;20049;-88
2023/05/15 04:47:44;;;;;;;260.48;146.70;;;;;;;17.28;50.71;92648.09;5024312;28;20091;-88
2023/05/15 04:50:10;;;;;;;231.57;88.60;;;;;;;17.26;50.60;92645.88;4999682;28;20086;-87
2023/05/15 04:52:35;;;;;;;183.15;82.18;;;;;;;17.30;50.82;92648.31;5020041;28;20049;-88
2023/05/15 04:55:01;;;;;;;181.13;82.88;;;;;;;17.30;50.41;92646.31;5008083;28;20114;-88
2023/05/15 04:57:26;;;;;;;203.30;88.85;;;;;;;17.35;50.70;92648.19;5029030;28;20037;-88
2023/05/15 04:59:52;;;;;;;198.00;87.28;;;;;;;17.32;50.48;92649.25;5013779;28;20037;-88
2023/05/15 05:02:22;;;;;;;185.52;87.53;;;;;;;17.38;50.36;92649.91;5029880;28;20056;-91
2023/05/15 05:04:48;;;;;;;186.43;86.13;;;;;;;17.31;50.25;92647.78;5028634;28;20120;-89
2023/05/15 05:07:13;;;;;;;193.70;84.60;;;;;;;17.33;50.65;92650.72;5020480;28;20140;-88
2023/05/15 05:09:39;;;;;;;181.95;88.50;;;;;;;17.31;50.56;92642.34;5036663;28;20053;-88
2023/05/15 05:12:06;;;;;;;269.35;108.22;;;;;;;17.35;50.54;92644.75;5028132;28;20037;-87
2023/05/15 05:14:31;;;;;;;252.80;106.43;;;;;;;17.35;50.58;92645.47;5040810;28;20054;-89
2023/05/15 05:16:57;;;;;;;220.13;97.90;;;;;;;17.35;50.81;92645.47;5031325;28;20538;-89
2023/05/15 05:19:22;;;;;;;279.45;119.43;;;;;;;17.39;50.54;92653.38;5030339;28;20132;-88
2023/05/15 05:21:50;;;;;;;252.63;117.57;;;;;;;17.53;50.66;92657.63;5080184;28;20041;-92
2023/05/15 05:24:16;;;;;;;266.85;94.32;;;;;;;17.53;50.19;92643.94;5031024;28;20045;-92
2023/05/15 05:26:45;;;;;;;161.48;52.20;;;;;;;17.34;50.67;92659.66;5049403;28;20041;-91
2023/05/15 05:29:11;;;;;;;117.72;44.30;;;;;;;17.18;50.70;92661.41;5049243;28;20760;-88
2023/05/15 05:31:37;;;;;;;62.65;25.10;;;;;;;17.12;50.68;92658.75;5027996;28;20064;-90
2023/05/15 05:34:02;;;;;;;82.38;37.85;;;;;;;17.06;51.06;92660.13;5030366;28;20059;-89
2023/05/15 05:36:28;;;;;;;125.28;55.97;;;;;;;17.14;51.38;92666.44;5047645;28;20037;-91
2023/05/15 05:38:53;;;;;;;81.70;31.30;;;;;;;17.13;50.87;92665.69;5013993;28;20052;-91
2023/05/15 05:41:18;;;;;;;122.40;42.03;;;;;;;17.14;50.74;92661.69;5012911;28;20053;-91
2023/05/15 05:43:44;;;;;;;60.38;30.30;;;;;;;17.17;50.91;92659.94;5012659;28;20053;-89
2023/05/15 05:46:09;;;;;;;112.38;42.53;;;;;;;17.18;50.90;92660.66;5008855;28;20078;-90
2023/05/15 05:48:35;;;;;;;153.70;61.88;;;;;;;17.18;50.70;92668.84;5002746;28;20144;-93
2023/05/15 05:51:01;;;;;;;179.38;63.70;;;;;;;17.28;50.98;92667.22;5011864;28;20048;-88
2023/05/15 05:53:26;;;;;;;181.73;77.22;;;;;;;17.26;51.19;92662.28;5014642;28;20048;-89
2023/05/15 05:55:52;;;;;;;172.43;75.32;;;;;;;17.28;51.23;92664.50;5063170;28;20033;-89
2023/05/15 05:58:18;;;;;;;227.50;89.13;;;;;;;17.29;51.14;92668.69;5017561;28;20075;-90
2023/05/15 06:00:44;;;;;;;289.67;128.10;;;;;;;17.39;50.81;92667.03;5013720;28;20037;-87
2023/05/15 06:03:18;;;;;;;302.00;138.43;;;;;;;17.45;50.99;92656.75;5033351;28;20518;-88
2023/05/15 06:05:43;;;;;;;247.77;105.10;;;;;;;17.46;51.39;92655.50;5047831;28;20037;-88
2023/05/15 06:08:10;;;;;;;308.63;144.65;;;;;;;17.61;51.50;92657.72;5048212;28;20041;-88
2023/05/15 06:10:36;;;;;;;318.90;149.20;;;;;;;17.63;50.82;92663.41;5066751;28;20048;-87
2023/05/15 06:13:01;;;;;;;271.40;136.25;;;;;;;17.62;50.83;92657.19;5015100;28;20186;-90
2023/05/15 06:15:27;;;;;;;297.40;136.10;;;;;;;17.70;50.54;92666.28;5007684;28;20132;-88
2023/05/15 06:17:52;;;;;;;281.00;131.93;;;;;;;17.69;50.30;92666.81;5030633;28;20230;-89
2023/05/15 06:20:18;;;;;;;281.98;147.43;;;;;;;17.67;50.34;92669.31;5029264;28;20040;-88
2023/05/15 06:22:44;;;;;;;277.25;145.00;;;;;;;17.51;50.82;92667.59;5027490;28;20108;-87
2023/05/15 06:25:12;;;;;;;261.23;146.63;;;;;;;17.59;50.61;92669.16;5044923;28;20045;-88
2023/05/15 06:27:39;;;;;;;257.83;127.65;;;;;;;17.60;50.57;92673.38;5044922;28;20148;-88
2023/05/15 06:30:05;;;;;;;357.30;162.40;;;;;;;17.54;50.80;92680.91;5012193;28;20041;-87
2023/05/15 06:32:34;;;;;;;328.67;149.77;;;;;;;17.47;50.46;92679.56;5027682;28;20064;-89
2023/05/15 06:35:01;;;;;;;317.88;138.95;;;;;;;17.50;50.64;92669.59;5014315;28;20045;-89
2023/05/15 06:37:27;;;;;;;320.63;138.65;;;;;;;17.53;50.67;92682.22;5030656;28;20373;-90
2023/05/15 06:39:53;;;;;;;311.00;132.32;;;;;;;17.60;50.61;92673.38;5018410;28;20072;-91
2023/05/15 06:42:18;;;;;;;367.52;173.85;;;;;;;17.67;50.49;92683.72;5011228;28;20045;-90
2023/05/15 06:44:46;;;;;;;347.48;149.40;;;;;;;17.45;50.46;92679.34;5030057;28;20591;-89
2023/05/15 06:47:11;;;;;;;172.95;68.20;;;;;;;17.48;50.94;92686.50;5013690;28;20068;-90
2023/05/15 06:49:37;;;;;;;118.90;48.55;;;;;;;17.30;51.34;92681.84;5027827;28;20087;-91
2023/05/15 06:52:03;;;;;;;169.85;45.72;;;;;;;17.23;51.52;92682.44;5026557;28;20033;-89
2023/05/15 06:54:28;;;;;;;114.63;39.05;;;;;;;17.24;51.46;92680.44;5012143;28;20037;-90
2023/05/15 06:56:54;;;;;;;98.05;32.67;;;;;;;17.16;51.44;92685.75;5044419;28;20045;-89
2023/05/15 06:59:20;;;;;;;76.97;33.60;;;;;;;17.14;51.22;92696.47;5030275;28;20111;-89
2023/05/15 07:01:45;;;;;;;78.13;27.88;;;;;;;17.13;51.58;92695.00;5019146;28;20045;-89
2023/05/15 07:04:11;;;;;;;77.47;23.60;;;;;;;17.12;51.36;92690.78;5014051;28;20149;-90
2023/05/15 07:06:36;;;;;;;85.80;23.00;;;;;;;17.02;51.50;92690.44;5029349;28;20076;-89
2023/05/15 07:09:03;;;;;;;86.72;21.48;;;;;;;17.01;51.25;92693.69;5003672;28;20117;-91
2023/05/15 07:11:36;;;;;;;64.40;21.83;;;;;;;16.98;51.55;92692.00;5013291;28;20496;-91
2023/05/15 07:14:02;;;;;;;94.03;25.15;;;;;;;16.91;51.49;92684.41;5015235;28;20053;-93
2023/05/15 07:16:28;;;;;;;89.25;24.35;;;;;;;16.87;51.97;92690.19;5006696;28;20500;-93
2023/05/15 07:18:54;;;;;;;110.50;29.85;;;;;;;16.97;51.53;92690.53;5018954;28;20037;-92
2023/05/15 07:21:19;;;;;;;112.72;32.65;;;;;;;17.03;51.87;92700.13;5017605;28;20056;-89
2023/05/15 07:23:45;;;;;;;479.55;120.45;;;;;;;17.11;51.87;92702.97;5023509;28;20060;-89
2023/05/15 07:26:10;;;;;;;288.63;94.70;;;;;;;17.11;51.47;92702.97;5031588;28;20041;-89
2023/05/15 07:28:38;;;;;;;207.05;48.65;;;;;;;17.07;51.79;92706.03;5036353;28;20064;-92
2023/05/15 07:31:03;;;;;;;328.52;94.20;;;;;;;17.06;51.26;92706.53;5047549;28;20052;-91
2023/05/15 07:33:29;;;;;;;335.08;124.32;;;;;;;17.08;51.77;92709.50;5030336;28;20404;-88
2023/05/15 07:35:54;;;;;;;133.45;43.17;;;;;;;16.99;51.69;92702.41;5024951;28;20041;-87
2023/05/15 07:38:20;;;;;;;104.03;32.90;;;;;;;16.88;52.00;92710.03;5018221;28;20149;-87
2023/05/15 07:40:45;;;;;;;90.05;28.77;;;;;;;16.72;51.96;92704.25;5016966;28;20099;-86
2023/05/15 07:43:10;;;;;;;105.38;30.58;;;;;;;16.78;52.03;92706.91;5046320;28;20052;-88
2023/05/15 07:45:36;;;;;;;98.43;33.40;;;;;;;16.73;52.54;92705.72;5035970;28;20041;-90
2023/05/15 07:48:15;;;;;;;170.10;81.57;;;;;;;16.81;52.64;92696.97;5016568;28;20041;-89
2023/05/15 07:50:41;;;;;;;245.00;94.68;;;;;;;16.76;52.44;92701.25;5029866;28;20190;-87
2023/05/15 07:53:06;;;;;;;230.88;83.82;;;;;;;16.75;52.04;92700.50;5012290;28;20447;-88
2023/05/15 07:55:31;;;;;;;236.43;86.30;;;;;;;16.75;52.40;92702.50;5016565;28;20073;-86
2023/05/15 07:57:57;;;;;;;191.45;66.55;;;;;;;16.73;52.60;92697.56;5031252;28;20037;-88
2023/05/15 08:00:23;;;;;;;145.77;56.75;;;;;;;16.72;52.31;92698.06;5015186;28;20049;-88
2023/05/15 08:02:48;;;;;;;147.40;52.63;;;;;;;16.78;52.81;92706.91;5025904;28;20079;-87
2023/05/15 08:05:14;;;;;;;162.43;63.10;;;;;;;16.81;52.82;92711.34;5031233;28;20025;-89
2023/05/15 08:07:40;;;;;;;156.88;59.53;;;;;;;16.96;52.63;92710.88;5013232;28;20049;-89
2023/05/15 08:10:06;;;;;;;288.73;90.72;;;;;;;16.96;52.11;92717.09;5010326;28;20071;-90
2023/05/15 08:12:32;;;;;;;274.58;96.55;;;;;;;17.05;52.64;92724.19;5050902;28;20049;-89
2023/05/15 08:14:57;;;;;;;287.02;106.60;;;;;;;17.23;52.84;92719.94;5031958;28;20057;-88
2023/05/15 08:17:23;;;;;;;343.15;143.88;;;;;;;17.11;52.03;92725.56;5015169;28;20040;-89
2023/05/15 08:19:48;;;;;;;343.77;140.05;;;;;;;17.20;52.06;92721.72;5016040;28;20037;-88
2023/05/15 08:22:14;;;;;;;337.10;130.88;;;;;;;17.16;52.26;92721.28;5029820;28;20033;-87
2023/05/15 08:24:40;;;;;;;331.80;142.15;;;;;;;17.20;51.69;92712.78;5033202;28;20041;-87
2023/05/15 08:27:06;;;;;;;261.63;117.85;;;;;;;17.33;52.47;92710.81;5032525;28;20148;-88
2023/05/15 08:29:32;;;;;;;333.52;144.25;;;;;;;17.27;51.50;92715.66;5045211;28;20037;-89
2023/05/15 08:31:57;;;;;;;295.70;130.88;;;;;;;17.39;52.09;92708.00;5015090;28;20047;-90
2023/05/15 08:34:23;;;;;;;323.00;149.48;;;;;;;17.33;51.79;92710.06;5017686;28;20040;-88
2023/05/15 08:36:49;;;;;;;323.10;155.23;;;;;;;17.33;51.74;92712.81;5027570;28;20489;-86
2023/05/15 08:39:14;;;;;;;349.90;166.05;;;;;;;17.38;51.17;92715.47;5010461;28;20037;-87
2023/05/15 08:41:46;;;;;;;308.02;147.02;;;;;;;17.38;51.86;92720.94;5032818;28;20037;-87
2023/05/15 08:44:12;;;;;;;323.13;158.52;;;;;;;17.41;51.93;92705.50;5027461;28;20028;-87
2023/05/15 08:46:37;;;;;;;440.35;199.43;;;;;;;17.50;50.99;92716.03;5045156;28;20068;-89
2023/05/15 08:49:20;;;;;;;328.10;165.85;;;;;;;17.51;51.61;92716.78;5035151;28;20098;-89
2023/05/15 08:51:47;;;;;;;345.70;175.25;;;;;;;17.46;51.30;92705.41;5033431;28;20488;-89
2023/05/15 08:54:12;;;;;;;365.73;176.65;;;;;;;17.45;51.38;92708.66;5015613;28;20060;-87
2023/05/15 08:56:38;;;;;;;347.88;188.05;;;;;;;17.45;51.47;92708.66;5029312;28;20566;-86
2023/05/15 08:59:03;;;;;;;387.85;203.48;;;;;;;17.47;51.58;92712.34;5007987;28;20037;-88
2023/05/15 09:01:32;;;;;;;355.75;185.10;;;;;;;17.50;51.55;92718.78;5013079;28;20037;-88
2023/05/15 09:03:57;;;;;;;387.17;205.88;;;;;;;17.56;51.54;92722.13;5031953;28;20060;-90
2023/05/15 09:06:23;;;;;;;391.30;210.55;;;;;;;17.54;51.04;92724.66;5026941;28;20507;-89
2023/05/15 09:08:49;;;;;;;377.75;204.73;;;;;;;17.55;51.28;92736.31;5014315;28;20072;-90
2023/05/15 09:11:15;;;;;;;375.05;200.95;;;;;;;17.55;51.20;92745.25;5045990;28;20047;-88
2023/05/15 09:13:40;;;;;;;361.08;187.18;;;;;;;17.65;51.44;92745.63;5049201;28;20059;-89
2023/05/15 09:16:06;;;;;;;334.60;171.45;;;;;;;17.74;51.29;92746.00;5034293;28;20039;-89
2023/05/15 09:18:32;;;;;;;402.50;203.70;;;;;;;17.59;51.49;92742.94;5016200;28;20064;-89
2023/05/15 09:21:20;;;;;;;395.88;212.32;;;;;;;17.60;51.37;92744.44;5018551;28;20171;-90
2023/05/15 09:23:46;;;;;;;319.98;168.25;;;;;;;17.69;51.89;92751.53;5050378;28;20162;-90
2023/05/15 09:26:11;;;;;;;361.55;200.65;;;;;;;17.64;51.94;92747.63;5033604;28;20118;-89
2023/05/15 09:28:36;;;;;;;438.23;232.82;;;;;;;17.64;51.55;92757.78;5028872;28;20122;-91
2023/05/15 09:31:03;;;;;;;423.88;236.27;;;;;;;17.61;51.44;92751.38;5048960;28;20411;-89
2023/05/15 09:33:43;;;;;;;334.08;163.18;;;;;;;17.58;51.60;92751.69;5015943;28;20048;-90
2023/05/15 09:36:09;;;;;;;441.48;178.55;;;;;;;17.51;52.20;92757.78;5031782;28;20107;-88
2023/05/15 09:38:41;;;;;;;315.48;127.18;;;;;;;17.51;52.02;92753.03;5033235;28;20048;-89
2023/05/15 09:41:07;;;;;;;220.05;95.20;;;;;;;17.46;52.43;92759.31;5026100;28;20557;-90
2023/05/15 09:43:33;;;;;;;229.10;91.85;;;;;;;17.38;52.56;92761.91;5010864;28;20057;-90
2023/05/15 09:45:59;;;;;;;196.98;67.50;;;;;;;17.40;52.57;92764.88;5013717;28;20059;-91
2023/05/15 09:48:25;;;;;;;162.23;60.90;;;;;;;17.42;52.27;92750.69;5020005;28;20128;-91
2023/05/15 09:50:51;;;;;;;123.03;48.70;;;;;;;17.42;52.78;92770.53;5012619;28;20040;-91
2023/05/15 09:53:16;;;;;;;119.50;47.40;;;;;;;17.37;52.65;92763.16;5014928;28;20040;-91
2023/05/15 09:55:43;;;;;;;130.45;43.97;;;;;;;17.36;52.79;92764.41;5032134;28;20154;-89
2023/05/15 09:58:12;;;;;;;180.82;46.28;;;;;;;17.33;52.79;92764.72;5025647;28;20029;-89
2023/05/15 10:00:39;;;;;;;132.52;45.95;;;;;;;17.27;52.65;92767.56;5030495;28;20099;-91
2023/05/15 10:03:05;;;;;;;143.63;36.47;;;;;;;17.36;53.12;92774.63;5011812;28;20084;-90
2023/05/15 10:05:30;;;;;;;77.88;23.15;;;;;;;17.32;53.24;92766.72;5024087;28;20041;-89
2023/05/15 10:07:56;;;;;;;52.10;19.58;;;;;;;17.28;53.50;92771.03;5008802;28;20045;-89
2023/05/15 10:10:22;;;;;;;46.75;19.80;;;;;;;17.29;52.75;92765.03;5011254;28;20049;-89
2023/05/15 10:12:51;;;;;;;71.55;16.98;;;;;;;17.28;53.04;92766.28;5018955;28;20098;-88
2023/05/15 10:15:17;;;;;;;34.05;13.02;;;;;;;17.29;52.65;92761.56;5012447;28;20276;-89
2023/05/15 10:17:43;;;;;;;25.17;9.75;;;;;;;17.25;52.84;92772.78;5028125;28;20048;-88
2023/05/15 10:20:09;;;;;;;30.00;9.68;;;;;;;17.13;53.42;92766.72;5005274;28;20026;-88
2023/05/15 10:22:36;;;;;;;33.25;9.52;;;;;;;17.12;53.87;92770.72;5006267;28;20065;-88
2023/05/15 10:25:06;;;;;;;30.92;9.55;;;;;;;17.12;53.77;92769.97;5046125;28;20510;-91
2023/05/15 10:27:33;;;;;;;32.78;8.65;;;;;;;17.04;53.62;92767.13;4988015;28;20566;-89
2023/05/15 10:29:58;;;;;;;22.10;8.40;;;;;;;17.12;54.11;92759.06;4992029;28;20469;-89
2023/05/15 10:32:24;;;;;;;29.08;9.23;;;;;;;17.20;53.76;92768.13;4990886;28;20048;-89
2023/05/15 10:34:50;;;;;;;25.17;8.70;;;;;;;17.16;54.08;92764.97;4984822;28;20050;-89
2023/05/15 10:37:15;;;;;;;27.48;10.40;;;;;;;17.17;53.89;92762.97;4993431;28;20134;-88
2023/05/15 10:39:40;;;;;;;30.13;9.98;;;;;;;17.19;54.19;92763.19;4992511;28;20072;-88
2023/05/15 10:42:06;;;;;;;45.08;13.45;;;;;;;17.25;53.75;92770.06;4986517;28;20034;-88
2023/05/15 10:44:32;;;;;;;32.03;14.63;;;;;;;17.23;53.81;92760.91;4992515;28;20504;-92
2023/05/15 10:46:57;;;;;;;56.78;27.75;;;;;;;17.23;53.42;92758.19;4992939;28;20045;-88
2023/05/15 10:49:23;;;;;;;65.30;36.35;;;;;;;17.24;53.13;92754.19;4988498;28;20053;-89
2023/05/15 10:51:49;;;;;;;52.45;27.25;;;;;;;17.27;53.65;92755.88;5012320;28;20038;-90
2023/05/15 10:54:14;;;;;;;51.45;26.35;;;;;;;17.27;53.90;92745.69;5011051;28;20045;-89
2023/05/15 10:56:40;;;;;;;84.20;43.92;;;;;;;17.30;52.98;92733.75;5006592;28;20611;-89
2023/05/15 10:59:07;;;;;;;51.70;24.90;;;;;;;17.41;53.96;92728.09;5020949;28;20047;-90
2023/05/15 11:01:34;;;;;;;61.00;32.95;;;;;;;17.41;53.85;92735.53;5064108;28;20538;-89
2023/05/15 11:04:09;;;;;;;72.97;31.45;;;;;;;17.43;53.43;92733.03;5033855;28;20116;-90
2023/05/15 11:06:37;;;;;;;547.60;257.00;;;;;;;17.37;53.46;92738.56;5052272;28;20045;-92
2023/05/15 11:09:21;;;;;;;185.73;69.80;;;;;;;17.39;53.77;92736.06;5035582;28;20132;-89
2023/05/15 11:11:56;;;;;;;136.48;55.53;;;;;;;17.45;53.28;92739.47;5048484;28;20500;-87
2023/05/15 11:14:25;;;;;;;209.48;80.00;;;;;;;17.43;53.59;92739.25;5042686;28;20040;-88